メインページ
METAR-TAF:

METAR-TAF

空港 :

Yüksekova, トルコ

緯度: 37-33-06N, 経度: 44-14-01E, 海抜: 1950m

現時点の気象観測

当レポートは1時間7分前の04:50(UTC)に作成
変向風 2kt
気温 -13°C
湿度 92%
気圧 1019 hPa
視程: 3500m
高度3500ftの雲は散在している
高度8000ftの千切れ雲あり

METAR: LTCW 210450Z VRB02KT 3500 BR SCT035 BKN080 M13/M14 Q1019

時間: 08:57 (05:57 UTC)

予報

当レポートは1時間17分前の04:40(UTC)に作成
予報は21日の 06時(UTC)から 21日の 15時(UTC)まで有効
変向風 2kt
視程: 8000m
高度3500ftの雲は散在している
高度8000ftの千切れ雲あり
21日の 06時(UTC)から 21日の 08時(UTC)まで一時的に
視程: 3500m

TAF: LTCW 210440Z 2106/2115 VRB02KT 8000 SCT035 BKN080 TEMPO 2106/2108 3500 BR

4,000以上の空港の気象観測と天気予報(METAR報とTAF報)

利用可能な観測所は地図上に黄色い丸と赤い丸で示す。

丸の上にカーソルを重ねると観測所名を参照できる。

次にクリックすると気象観測と天気予報を参照できる。

マップの切り替え:黒色「×」印の緑ボタンをクリックして拡大、「-」印の緑ボタンをクリックして縮小、緑色の三角印をクリックして隣りの地図に切り替え


METAR-TAF: